SUP weather

Trunojoyo Airport
Sumenep-Madura Island, Jawa Timur, Indonesia

Public forecast

Using degrees Celsius for public forecast. Weather courtesy of forecast.io.

METAR (pilot weather report)

Closest report is Juanda International Airport, 69.1 nm (128.0 km) WSW. Retrieved 2019/03/23 08:00 UTC (6 minutes ago):

WARR 230800Z 30013KT 280V340 9999 FEW020CB 32/24 Q1005 NOSIG

TAF (pilot weather forecast)

Forecast is more than 12 hours old.

Retrieved 2017/03/16 00:00 UTC (2 years ago):

TAF WART 152300Z 1600/1612 34005KT 9999 SCT020 BECMG 1601/1603 22010KT TEMPO 1604/1608 4000 TSRA FEW017CB BKN018 BECMG 1610/1612 10006KT FEW020